createdAt,value
2019-01-18T00:00:48.021Z,28.8
2019-01-18T00:01:38.645Z,28.8
2019-01-18T00:02:27.581Z,28.8
2019-01-18T00:03:33.745Z,28.8
2019-01-18T00:04:09.069Z,28.8
2019-01-18T00:04:58.623Z,28.8
2019-01-18T00:05:48.901Z,28.8
2019-01-18T00:06:39.268Z,28.8
2019-01-18T00:07:29.023Z,28.8
2019-01-18T00:08:19.113Z,28.8
2019-01-18T00:09:08.583Z,28.8
2019-01-18T00:09:58.909Z,28.7
2019-01-18T00:10:48.699Z,28.7
2019-01-18T00:11:38.750Z,28.7
2019-01-18T00:12:29.648Z,28.7
2019-01-18T00:13:19.145Z,28.7
2019-01-18T00:14:09.494Z,28.7
2019-01-18T00:14:59.541Z,28.6
2019-01-18T00:15:50.182Z,28.6
2019-01-18T00:16:38.548Z,28.6
2019-01-18T00:17:29.443Z,28.6
2019-01-18T00:18:19.207Z,28.6
2019-01-18T00:19:09.278Z,28.6
2019-01-18T00:20:00.478Z,28.6
2019-01-18T00:20:49.120Z,28.6
2019-01-18T00:21:39.480Z,28.6
2019-01-18T00:22:30.330Z,28.6
2019-01-18T00:23:20.663Z,28.6
2019-01-18T00:24:10.435Z,28.6
2019-01-18T00:25:00.525Z,28.6
2019-01-18T00:25:50.022Z,28.5
2019-01-18T00:26:40.639Z,28.5
2019-01-18T00:27:30.674Z,28.5
2019-01-18T00:28:21.109Z,28.5
2019-01-18T00:29:10.515Z,28.5
2019-01-18T00:30:00.845Z,28.5
2019-01-18T00:30:50.637Z,28.5
2019-01-18T00:31:40.124Z,28.5
2019-01-18T00:32:30.464Z,28.5
2019-01-18T00:33:21.107Z,28.4
2019-01-18T00:34:10.847Z,28.4
2019-01-18T00:35:01.214Z,28.4
2019-01-18T00:35:51.266Z,28.4
2019-01-18T00:36:41.029Z,28.4
2019-01-18T00:37:31.369Z,28.4
2019-01-18T00:38:20.911Z,28.4
2019-01-18T00:39:11.519Z,28.4
2019-01-18T00:40:01.275Z,28.4
2019-01-18T00:40:51.316Z,28.3
2019-01-18T03:08:43.807Z,34.6
2019-01-18T03:09:32.842Z,34.7
2019-01-18T03:10:24.429Z,34.8
2019-01-18T03:11:14.554Z,34.8
2019-01-18T03:12:03.797Z,34.9
2019-01-18T03:12:54.614Z,34.9
2019-01-18T03:13:44.147Z,34.9
2019-01-18T03:14:34.982Z,35
2019-01-18T03:15:24.572Z,35.1
2019-01-18T03:16:13.503Z,35.1
2019-01-18T03:17:03.811Z,35.1
2019-01-18T03:17:54.204Z,35.1
2019-01-18T03:18:44.296Z,35.2
2019-01-18T03:19:35.124Z,35.2
2019-01-18T03:20:24.907Z,35.3
2019-01-18T03:21:14.609Z,35.3
2019-01-18T03:22:19.056Z,35.3
2019-01-18T03:23:45.081Z,35.4
2019-01-18T03:24:34.979Z,35.5
2019-01-18T03:25:24.766Z,35.5
2019-01-18T03:26:14.758Z,35.6
2019-01-18T03:27:05.071Z,35.6
2019-01-18T03:27:55.160Z,35.7
2019-01-18T03:28:44.963Z,35.7
2019-01-18T03:29:35.518Z,35.8
2019-01-18T03:30:26.517Z,35.8
2019-01-18T03:31:15.523Z,35.8
2019-01-18T03:32:05.801Z,35.9
2019-01-18T03:32:56.036Z,35.9
2019-01-18T03:33:45.300Z,35.9
2019-01-18T03:34:35.870Z,35.9
2019-01-18T03:35:25.914Z,36
2019-01-18T03:36:15.717Z,36
2019-01-18T03:37:05.866Z,36
2019-01-18T03:37:55.853Z,36.1
2019-01-18T03:38:46.186Z,36.1
2019-01-18T03:39:36.300Z,36.1
2019-01-18T03:40:26.018Z,36.1
2019-01-18T03:41:15.312Z,36.1
2019-01-18T03:42:05.354Z,36.1
2019-01-18T03:42:56.057Z,36.1
2019-01-18T03:43:45.520Z,36.1
2019-01-18T03:44:35.227Z,36.1
2019-01-18T03:45:25.527Z,36.1
2019-01-18T03:46:16.680Z,36.1
2019-01-18T03:47:06.739Z,36.2
2019-01-18T03:47:55.949Z,36.2
2019-01-18T03:48:45.434Z,36.2
2019-01-18T03:49:37.147Z,36.2
2019-01-18T03:50:26.934Z,36.2
2019-01-18T03:51:16.384Z,36.3
2019-01-18T03:52:06.995Z,36.3
2019-01-18T03:52:57.364Z,36.2
2019-01-18T03:53:47.074Z,36.3
2019-01-18T03:54:37.005Z,36.3
2019-01-18T03:55:26.994Z,36.3
2019-01-18T03:56:17.284Z,36.3
2019-01-18T03:57:07.369Z,36.3
2019-01-18T03:57:57.412Z,36.3
2019-01-18T03:58:47.726Z,36.3
2019-01-18T03:59:37.291Z,36.3
2019-01-18T04:00:31.717Z,36.3
2019-01-18T04:01:17.673Z,36.3
2019-01-18T04:02:07.169Z,36.3
2019-01-18T04:02:58.140Z,36.3
2019-01-18T04:03:47.588Z,36.3
2019-01-18T04:04:37.641Z,36.3
2019-01-18T04:05:28.221Z,36.3
2019-01-18T04:06:18.531Z,36.3
2019-01-18T04:07:08.588Z,36.3
2019-01-18T04:07:57.798Z,36.3
2019-01-18T04:08:48.481Z,36.3
2019-01-18T04:09:38.727Z,36.3
2019-01-18T04:10:27.991Z,36.3
2019-01-18T04:11:18.295Z,36.3
2019-01-18T04:12:08.143Z,36.3
2019-01-18T04:12:57.869Z,36.3
2019-01-18T04:13:47.715Z,36.3
2019-01-18T04:14:37.745Z,36.3
2019-01-18T04:15:27.617Z,36.3
2019-01-18T04:16:18.168Z,36.3
2019-01-18T04:17:08.233Z,36.3
2019-01-18T04:17:58.370Z,36.3
2019-01-18T04:18:48.901Z,36.4
2019-01-18T04:19:38.840Z,36.3
2019-01-18T04:20:29.197Z,36.4
2019-01-18T04:21:19.260Z,36.4
2019-01-18T04:22:09.345Z,36.4
2019-01-18T04:22:59.412Z,36.4
2019-01-18T04:23:49.253Z,36.3
2019-01-18T04:24:39.505Z,36.3
2019-01-18T04:25:29.675Z,36.3
2019-01-18T04:26:19.584Z,36.3
2019-01-18T04:27:09.902Z,36.3
2019-01-18T04:27:59.445Z,36.3
2019-01-18T04:28:49.797Z,36.3
2019-01-18T04:29:38.719Z,36.3
2019-01-18T04:30:38.222Z,36.3
2019-01-18T04:31:20.236Z,36.3
2019-01-18T04:32:09.430Z,36.3
2019-01-18T04:32:59.812Z,36.3
2019-01-18T04:33:50.124Z,36.3
2019-01-18T04:34:40.156Z,36.3
2019-01-18T04:35:30.512Z,36.2
2019-01-18T04:36:20.337Z,36.3
2019-01-18T04:37:10.616Z,36.2
2019-01-18T04:38:00.472Z,36.2
2019-01-18T04:38:50.481Z,36.2
2019-01-18T04:39:40.231Z,36.2
2019-01-18T04:40:30.589Z,36.2
2019-01-18T04:41:20.366Z,36.2
2019-01-18T04:42:10.396Z,36.2
2019-01-18T04:43:00.204Z,36.2
2019-01-18T04:43:51.072Z,36.2
2019-01-18T04:44:40.883Z,36.2
2019-01-18T04:45:30.341Z,36.2
2019-01-18T04:46:20.686Z,36.2
2019-01-18T04:47:10.486Z,36.2
2019-01-18T04:48:01.059Z,36.2
2019-01-18T04:48:50.289Z,36.2
2019-01-18T04:49:40.404Z,36.3
2019-01-18T04:50:31.253Z,36.2
2019-01-18T04:51:21.286Z,36.2
2019-01-18T04:52:11.065Z,36.2
2019-01-18T04:53:01.146Z,36.2
2019-01-18T04:53:50.903Z,36.2
2019-01-18T04:54:40.963Z,36.2
2019-01-18T04:55:46.230Z,36.2
2019-01-18T04:56:21.065Z,36.2
2019-01-18T04:57:11.960Z,36.2
2019-01-18T04:58:01.240Z,36.2
2019-01-18T04:58:51.248Z,36.2
2019-01-18T04:59:41.586Z,36.2
2019-01-18T05:00:32.233Z,36.2
2019-01-18T05:01:22.276Z,36.1
2019-01-18T05:02:11.743Z,36.1
2019-01-18T05:03:02.095Z,36.1
2019-01-18T05:03:52.436Z,36.1
2019-01-18T05:04:41.990Z,36.1
2019-01-18T05:05:31.470Z,36.1
2019-01-18T05:06:21.217Z,36.1
2019-01-18T05:07:12.082Z,36.1
2019-01-18T05:08:02.159Z,36
2019-01-18T05:08:52.221Z,36
2019-01-18T05:09:41.982Z,35.9
2019-01-18T05:10:32.311Z,35.9
2019-01-18T05:11:22.917Z,35.9
2019-01-18T05:12:12.488Z,35.9
2019-01-18T05:13:03.086Z,35.9
2019-01-18T05:13:52.892Z,35.9
2019-01-18T05:14:42.627Z,35.9
2019-01-18T05:15:32.427Z,35.9
2019-01-18T05:16:23.326Z,35.9
2019-01-18T05:17:13.065Z,35.9
2019-01-18T05:18:02.912Z,35.9
2019-01-18T05:18:53.188Z,35.9
2019-01-18T05:19:44.729Z,35.9
2019-01-18T05:20:33.036Z,35.9
2019-01-18T05:21:23.070Z,35.9
2019-01-18T05:22:13.097Z,35.9
2019-01-18T05:23:03.466Z,35.9
2019-01-18T05:23:52.938Z,35.9
2019-01-18T05:24:50.741Z,35.9
2019-01-18T05:25:33.358Z,35.9
2019-01-18T05:26:23.396Z,35.8
2019-01-18T05:27:13.460Z,35.9
2019-01-18T05:28:02.971Z,35.8
2019-01-18T05:28:53.581Z,35.8
2019-01-18T05:29:42.276Z,35.8
2019-01-18T05:30:33.954Z,35.8
2019-01-18T05:31:23.720Z,35.8
2019-01-18T05:32:12.480Z,35.8
2019-01-18T05:33:03.672Z,35.8
2019-01-18T05:33:53.394Z,35.8
2019-01-18T05:34:43.771Z,35.8
2019-01-18T05:35:34.108Z,35.8
2019-01-18T05:36:24.167Z,35.8
2019-01-18T05:37:13.638Z,35.7
2019-01-18T05:38:03.998Z,35.7
2019-01-18T05:38:54.045Z,35.7
2019-01-18T05:39:44.352Z,35.7
2019-01-18T05:40:33.846Z,35.7
2019-01-18T05:41:24.203Z,35.7
2019-01-18T05:42:14.717Z,35.6
2019-01-18T05:43:04.802Z,35.6
2019-01-18T05:43:54.340Z,35.6
2019-01-18T05:44:45.383Z,35.6
2019-01-18T05:45:34.735Z,35.6
2019-01-18T05:46:24.303Z,35.6
2019-01-18T05:47:14.304Z,35.6
2019-01-18T05:48:04.570Z,35.6
2019-01-18T05:48:55.182Z,35.6
2019-01-18T05:49:45.007Z,35.5
2019-01-18T05:50:33.975Z,35.5
2019-01-18T05:51:24.832Z,35.5
2019-01-18T05:52:15.472Z,35.4
2019-01-18T05:53:05.462Z,35.4
2019-01-18T05:53:56.016Z,35.4
2019-01-18T05:54:45.310Z,35.4
2019-01-18T05:55:35.909Z,35.4
2019-01-18T05:56:25.667Z,35.4
2019-01-18T05:57:15.506Z,35.4
2019-01-18T05:58:04.975Z,35.4
2019-01-18T05:58:55.286Z,35.4
2019-01-18T05:59:45.649Z,35.4
2019-01-18T06:00:35.701Z,35.4
2019-01-18T06:01:28.123Z,35.4
2019-01-18T06:02:15.798Z,35.3
2019-01-18T06:03:06.409Z,35.3
2019-01-18T06:03:56.221Z,35.3
2019-01-18T06:04:46.229Z,35.3
2019-01-18T06:06:44.478Z,35.3
2019-01-18T06:07:34.013Z,35.3
2019-01-18T06:08:24.401Z,35.3
2019-01-18T06:09:14.405Z,35.3
2019-01-18T06:10:04.438Z,35.2
2019-01-18T06:10:54.482Z,35.3
2019-01-18T06:11:44.526Z,35.2
2019-01-18T06:12:34.643Z,35.2
2019-01-18T06:13:24.936Z,35.2
2019-01-18T06:14:14.138Z,35.2
2019-01-18T06:15:04.281Z,35.2
2019-01-18T06:15:54.890Z,35.1
2019-01-18T06:16:44.890Z,35.1
2019-01-18T06:17:35.226Z,35.1
2019-01-18T06:18:24.748Z,35.1
2019-01-18T06:19:15.036Z,35.1
2019-01-18T06:20:04.988Z,35.1
2019-01-18T06:20:55.400Z,35.1
2019-01-18T06:21:45.480Z,35.1
2019-01-18T06:22:35.547Z,35.1
2019-01-18T06:23:25.664Z,35.1
2019-01-18T06:24:14.866Z,35
2019-01-18T06:25:05.595Z,35.1
2019-01-18T06:25:55.515Z,35
2019-01-18T06:26:45.838Z,35
2019-01-18T06:27:35.406Z,35
2019-01-18T06:28:25.391Z,35
2019-01-18T06:29:15.952Z,35
2019-01-18T06:30:06.076Z,34.9
2019-01-18T06:31:02.732Z,34.9
2019-01-18T06:31:46.154Z,34.9
2019-01-18T06:32:35.907Z,34.9
2019-01-18T06:33:26.319Z,34.9
2019-01-18T06:34:16.109Z,34.9
2019-01-18T06:35:06.442Z,34.9
2019-01-18T06:35:55.924Z,34.9
2019-01-18T06:36:45.247Z,34.9
2019-01-18T06:37:36.047Z,34.8
2019-01-18T06:38:26.591Z,34.8
2019-01-18T06:39:16.659Z,34.8
2019-01-18T06:40:06.721Z,34.7
2019-01-18T06:40:56.753Z,34.6
2019-01-18T06:41:46.831Z,34.3
2019-01-18T06:42:36.343Z,34.1
2019-01-18T06:43:26.929Z,33.8
2019-01-18T06:44:16.996Z,33.4
2019-01-18T06:45:06.496Z,33.1
2019-01-18T06:45:57.101Z,32.8
2019-01-18T06:46:45.876Z,32.6
2019-01-18T06:47:36.954Z,32.3
2019-01-18T06:48:27.036Z,32
2019-01-18T06:49:17.050Z,31.8
2019-01-18T06:50:06.889Z,31.5
2019-01-18T06:50:57.428Z,31.3
2019-01-18T06:51:47.232Z,31.1
2019-01-18T06:52:37.329Z,30.9
2019-01-18T06:53:27.325Z,30.6
2019-01-18T06:54:17.653Z,30.4
2019-01-18T06:55:07.185Z,30.3
2019-01-18T06:55:57.785Z,30.1
2019-01-18T06:56:47.568Z,29.9
2019-01-18T06:57:37.633Z,29.8
2019-01-18T06:58:27.395Z,29.6
2019-01-18T06:59:17.768Z,29.5
2019-01-18T07:00:07.888Z,29.4
2019-01-18T07:00:57.585Z,29.3
2019-01-18T07:01:47.617Z,29.1
2019-01-18T07:02:37.692Z,29
2019-01-18T07:03:28.010Z,28.9
2019-01-18T07:04:18.133Z,28.8
2019-01-18T07:06:43.864Z,28.4
2019-01-18T07:07:33.322Z,28.4
2019-01-18T07:08:23.965Z,28.3
2019-01-18T07:09:14.287Z,28.2
2019-01-18T07:10:04.087Z,28.1
2019-01-18T07:10:54.114Z,28.1
2019-01-18T07:11:43.632Z,28
2019-01-18T07:12:33.952Z,27.9
2019-01-18T07:13:24.289Z,27.9
2019-01-18T07:15:04.817Z,27.8
2019-01-18T07:15:54.714Z,27.6
2019-01-18T07:16:44.514Z,27.5
2019-01-18T07:17:34.055Z,27.4
2019-01-18T07:18:25.949Z,27.3
2019-01-18T07:19:14.944Z,27.1
2019-01-18T07:20:04.739Z,27.1
2019-01-18T07:20:54.526Z,26.9
2019-01-18T07:21:45.421Z,26.8
2019-01-18T07:22:34.896Z,26.6
2019-01-18T07:23:25.226Z,26.4
2019-01-18T07:24:15.611Z,26.4
2019-01-18T07:25:05.391Z,26.2
2019-01-18T07:25:54.688Z,26.1
2019-01-18T07:26:45.486Z,25.9
2019-01-18T07:27:35.093Z,25.8
2019-01-18T07:28:25.608Z,25.8
2019-01-18T07:29:15.933Z,25.6
2019-01-18T07:30:05.723Z,25.5
2019-01-18T07:30:55.178Z,25.4
2019-01-18T07:31:45.275Z,25.3
2019-01-18T07:32:35.335Z,25.2
2019-01-18T07:33:25.661Z,25.1
2019-01-18T07:34:16.255Z,25
2019-01-18T07:35:06.056Z,24.9
2019-01-18T07:35:56.365Z,24.9
2019-01-18T07:36:46.153Z,24.8
2019-01-18T07:37:35.726Z,24.7
2019-01-18T07:38:25.422Z,24.6
2019-01-18T07:39:15.495Z,24.6
2019-01-18T07:40:06.678Z,24.5
2019-01-18T07:40:55.887Z,24.4
2019-01-18T07:41:46.530Z,24.4
2019-01-18T07:42:36.853Z,24.3
2019-01-18T07:43:26.907Z,24.3
2019-01-18T07:44:16.745Z,24.2
2019-01-18T07:45:07.043Z,24.1
2019-01-18T07:45:56.252Z,24.1
2019-01-18T07:46:46.912Z,24.1
2019-01-18T07:47:36.637Z,24
2019-01-18T07:48:26.987Z,23.9
2019-01-18T07:49:16.793Z,23.8
2019-01-18T07:50:06.589Z,23.8
2019-01-18T07:50:56.015Z,23.8
2019-01-18T07:51:47.234Z,23.7
2019-01-18T07:52:37.244Z,23.6
2019-01-18T07:53:27.311Z,23.6
2019-01-18T07:54:17.076Z,25.6
2019-01-18T07:55:06.591Z,36.3
2019-01-18T07:55:57.232Z,39.7
2019-01-18T07:56:47.799Z,40
2019-01-18T07:57:37.334Z,40.1
2019-01-18T07:58:27.087Z,39.6
2019-01-18T07:59:17.674Z,43.3
2019-01-18T08:00:07.784Z,44.6
2019-01-18T08:00:59.504Z,45.9
2019-01-18T08:01:47.602Z,46.4
2019-01-18T08:02:37.936Z,46.1
2019-01-18T08:03:27.728Z,45.1
2019-01-18T08:04:17.508Z,44.3
2019-01-18T08:05:07.893Z,43.4
2019-01-18T08:05:57.606Z,42.6
2019-01-18T08:06:47.930Z,41.8
2019-01-18T08:07:37.722Z,41.1
2019-01-18T08:08:27.773Z,40.5
2019-01-18T08:09:18.701Z,39.9
2019-01-18T08:10:08.153Z,39.4
2019-01-18T08:10:58.534Z,38.8
2019-01-18T08:11:48.056Z,38.4
2019-01-18T08:12:38.050Z,37.9
2019-01-18T08:13:28.398Z,39.9
2019-01-18T08:14:18.745Z,43.6
2019-01-18T08:15:09.074Z,44.6
2019-01-18T08:15:59.119Z,46.5
2019-01-18T08:16:48.881Z,47.8
2019-01-18T08:17:39.240Z,48.1
2019-01-18T08:18:28.450Z,46.8
2019-01-18T08:19:19.070Z,44.6
2019-01-18T08:20:09.115Z,46.4
2019-01-18T08:20:59.197Z,46.9
2019-01-18T08:21:49.542Z,47.6
2019-01-18T08:22:39.032Z,48.4
2019-01-18T08:23:29.070Z,48.8
2019-01-18T08:24:19.120Z,49.1
2019-01-18T08:25:09.205Z,49.1
2019-01-18T08:25:59.235Z,49.1
2019-01-18T08:26:49.352Z,49.1
2019-01-18T08:27:39.087Z,49.1
2019-01-18T08:28:29.962Z,49.2
2019-01-18T08:29:19.772Z,49.3
2019-01-18T08:30:09.313Z,49.4
2019-01-18T08:30:59.865Z,49.6
2019-01-18T08:31:49.925Z,49.7
2019-01-18T08:32:40.001Z,49.8
2019-01-18T08:33:29.780Z,50
2019-01-18T08:34:19.062Z,50.1
2019-01-18T08:35:09.931Z,50.3
2019-01-18T08:35:59.726Z,50.5
2019-01-18T08:36:50.020Z,50.6
2019-01-18T08:37:40.315Z,50.8
2019-01-18T08:38:29.379Z,50.9
2019-01-18T08:39:20.176Z,50.9
2019-01-18T08:40:10.497Z,51
2019-01-18T08:41:00.856Z,51.1
2019-01-18T08:41:50.383Z,51
2019-01-18T08:42:40.682Z,51
2019-01-18T08:43:30.181Z,51
2019-01-18T08:44:20.521Z,50.9
2019-01-18T08:45:10.356Z,50.9
2019-01-18T08:45:59.580Z,50.9
2019-01-18T08:46:50.776Z,51
2019-01-18T08:47:40.535Z,50.9
2019-01-18T08:48:30.861Z,51
2019-01-18T08:49:20.398Z,51
2019-01-18T08:50:10.973Z,51.1
2019-01-18T08:51:01.227Z,51.1
2019-01-18T08:51:50.293Z,51.1
2019-01-18T08:52:41.355Z,51
2019-01-18T08:53:30.650Z,50.9
2019-01-18T08:54:21.736Z,50.8
2019-01-18T08:55:11.256Z,50.8
2019-01-18T08:56:01.578Z,50.8
2019-01-18T08:56:51.350Z,50.7
2019-01-18T08:57:41.465Z,50.8
2019-01-18T08:58:30.988Z,50.8
2019-01-18T08:59:21.025Z,50.7
2019-01-18T09:00:11.083Z,50.7
2019-01-18T09:01:00.796Z,50.7
2019-01-18T09:01:52.298Z,50.6
2019-01-18T09:02:41.765Z,50.6
2019-01-18T09:03:32.102Z,50.6
2019-01-18T09:04:21.315Z,50.5
2019-01-18T09:05:13.015Z,50.3
2019-01-18T09:06:02.281Z,50
2019-01-18T09:06:51.857Z,49.9
2019-01-18T09:07:41.540Z,49.8
2019-01-18T09:08:32.204Z,49.7
2019-01-18T09:09:22.259Z,49.6
2019-01-18T09:10:12.547Z,49.6
2019-01-18T09:11:02.337Z,49.5
2019-01-18T09:11:52.135Z,49.4
2019-01-18T09:12:43.005Z,49.3
2019-01-18T09:13:33.047Z,49.3
2019-01-18T09:14:24.827Z,49.1
2019-01-18T09:15:12.351Z,49.1
2019-01-18T09:16:02.384Z,48.9
2019-01-18T09:16:52.441Z,48.8
2019-01-18T09:17:43.083Z,48.8
2019-01-18T09:18:34.690Z,48.7
2019-01-18T09:19:22.349Z,48.6
2019-01-18T09:20:12.698Z,48.5
2019-01-18T09:21:03.300Z,48.4
2019-01-18T09:21:53.356Z,48.3
2019-01-18T09:22:43.411Z,48.2
2019-01-18T09:23:33.467Z,48.1
2019-01-18T09:24:23.311Z,48
2019-01-18T09:25:13.304Z,47.9
2019-01-18T09:26:03.383Z,47.9
2019-01-18T09:26:53.411Z,47.8
2019-01-18T09:27:43.488Z,47.7
2019-01-18T09:28:32.406Z,47.6
2019-01-18T09:29:24.196Z,47.6
2019-01-18T09:30:13.378Z,47.5
2019-01-18T09:31:04.256Z,47.4
2019-01-18T09:31:53.768Z,47.3
2019-01-18T09:32:43.803Z,47.2
2019-01-18T09:33:34.158Z,47.1
2019-01-18T09:34:24.493Z,47.1
2019-01-18T09:35:13.696Z,47
2019-01-18T09:36:04.038Z,46.9
2019-01-18T09:36:54.067Z,46.9
2019-01-18T09:37:44.467Z,46.9
2019-01-18T09:38:34.218Z,46.8
2019-01-18T09:39:24.268Z,46.8
2019-01-18T09:40:14.908Z,46.8
2019-01-18T09:41:03.540Z,46.7
2019-01-18T09:41:55.000Z,46.4
2019-01-18T09:42:44.253Z,46.1
2019-01-18T09:43:34.553Z,45.9
2019-01-18T09:44:24.890Z,45.9
2019-01-18T09:45:15.232Z,45.8
2019-01-18T09:46:04.175Z,45.8
2019-01-18T09:46:55.065Z,45.7
2019-01-18T09:47:45.387Z,45.6
2019-01-18T09:48:34.892Z,45.5
2019-01-18T09:49:24.964Z,45.4
2019-01-18T09:50:15.338Z,45.3
2019-01-18T09:51:05.334Z,45.2
2019-01-18T09:51:55.404Z,45.1
2019-01-18T09:52:45.462Z,45
2019-01-18T09:53:35.521Z,44.9
2019-01-18T09:54:24.744Z,44.9
2019-01-18T09:55:15.060Z,44.8
2019-01-18T09:56:05.704Z,44.6
2019-01-18T09:56:55.257Z,44.6
2019-01-18T09:57:45.112Z,44.5
2019-01-18T09:58:34.831Z,44.4
2019-01-18T09:59:25.201Z,44.4
2019-01-18T10:00:15.776Z,44.4
2019-01-18T10:01:07.000Z,44.3
2019-01-18T10:01:55.534Z,44.3
2019-01-18T10:02:45.604Z,44.2
2019-01-18T10:03:36.209Z,44.1
2019-01-18T10:04:26.263Z,43.9
2019-01-18T10:05:16.306Z,43.9
2019-01-18T10:07:43.493Z,43.6
2019-01-18T10:08:34.021Z,43.6
2019-01-18T10:09:24.366Z,43.6
2019-01-18T10:10:13.638Z,43.5
2019-01-18T10:11:03.151Z,43.4
2019-01-18T10:11:53.684Z,43.4
2019-01-18T10:12:43.806Z,43.3
2019-01-18T10:13:35.313Z,43.3
2019-01-18T10:14:24.423Z,43.3
2019-01-18T10:15:13.245Z,43.3
2019-01-18T10:16:04.385Z,43.4
2019-01-18T10:16:53.853Z,43.4
2019-01-18T10:17:44.378Z,43.6
2019-01-18T10:18:33.659Z,43.7
2019-01-18T10:19:24.760Z,43.8
2019-01-18T10:20:14.540Z,43.9
2019-01-18T10:21:04.966Z,43.8
2019-01-18T10:21:54.145Z,43.9
2019-01-18T10:22:43.397Z,43.9
2019-01-18T10:23:33.751Z,44
2019-01-18T10:24:26.615Z,44.1
2019-01-18T10:25:14.925Z,44.3
2019-01-18T10:26:04.950Z,44.4
2019-01-18T10:26:55.286Z,44.6
2019-01-18T10:27:45.329Z,44.6
2019-01-18T10:28:35.152Z,44.6
2019-01-18T10:29:32.125Z,44.7
2019-01-18T10:30:15.827Z,44.8
2019-01-18T10:31:05.634Z,44.8
2019-01-18T10:32:01.212Z,44.8
2019-01-18T10:32:45.420Z,44.8
2019-01-18T10:33:35.467Z,44.9
2019-01-18T10:34:26.112Z,45
2019-01-18T10:35:16.134Z,45.1
2019-01-18T10:36:05.089Z,45.3
2019-01-18T10:36:57.366Z,45.3
2019-01-18T10:37:46.337Z,45.3
2019-01-18T10:38:36.083Z,45.3
2019-01-18T10:39:26.394Z,45.4
2019-01-18T10:40:16.179Z,45.4
2019-01-18T10:41:06.526Z,45.5
2019-01-18T10:41:55.806Z,45.6
2019-01-18T10:42:46.377Z,45.7
2019-01-18T10:43:35.856Z,45.8
2019-01-18T10:44:26.843Z,45.9
2019-01-18T10:45:16.265Z,45.9
2019-01-18T10:46:06.596Z,46
2019-01-18T10:46:55.831Z,46.1
2019-01-18T10:47:46.161Z,46.1
2019-01-18T10:48:36.826Z,46.2
2019-01-18T10:49:26.828Z,46.3
2019-01-18T10:50:16.658Z,46.3
2019-01-18T10:51:07.241Z,46.3
2019-01-18T10:51:57.020Z,46.3
2019-01-18T10:52:46.504Z,46.3
2019-01-18T10:53:37.158Z,46.3
2019-01-18T10:54:27.171Z,46.2
2019-01-18T10:55:17.535Z,46.2
2019-01-18T10:56:06.780Z,46.2
2019-01-18T10:56:56.213Z,46.2
2019-01-18T10:57:47.428Z,46.3
2019-01-18T10:58:37.497Z,46.3
2019-01-18T10:59:27.514Z,46.3
2019-01-18T11:00:17.590Z,46.3
2019-01-18T11:01:07.338Z,46.3
2019-01-18T11:02:10.865Z,46.4
2019-01-18T11:02:47.430Z,46.4
2019-01-18T11:03:37.753Z,46.4
2019-01-18T11:04:27.557Z,46.4
2019-01-18T11:05:18.200Z,46.4
2019-01-18T11:06:08.231Z,46.4
2019-01-18T11:06:57.725Z,46.4
2019-01-18T11:07:47.765Z,46.4
2019-01-18T11:08:37.270Z,46.4
2019-01-18T11:09:27.899Z,46.4
2019-01-18T11:10:17.932Z,46.4
2019-01-18T11:11:07.440Z,46.5
2019-01-18T11:11:58.048Z,46.5
2019-01-18T11:12:48.365Z,46.6
2019-01-18T11:13:38.162Z,46.6
2019-01-18T11:14:28.248Z,46.7
2019-01-18T11:15:18.553Z,46.8
2019-01-18T11:16:08.622Z,46.8
2019-01-18T11:16:58.750Z,46.8
2019-01-18T11:17:49.014Z,46.8
2019-01-18T11:18:38.504Z,46.9
2019-01-18T11:19:28.856Z,46.8
2019-01-18T11:20:18.356Z,46.8
2019-01-18T11:21:09.226Z,46.7
2019-01-18T11:21:58.439Z,46.7
2019-01-18T11:22:48.791Z,46.6
2019-01-18T11:23:39.411Z,46.6
2019-01-18T11:24:28.906Z,46.5
2019-01-18T11:25:20.045Z,46.4
2019-01-18T11:26:09.077Z,46.3
2019-01-18T11:26:58.521Z,46.3
2019-01-18T11:27:49.689Z,46.2
2019-01-18T11:28:39.259Z,46.1
2019-01-18T11:29:29.233Z,46
2019-01-18T11:30:19.609Z,45.9
2019-01-18T11:31:09.383Z,45.9
2019-01-18T11:31:59.680Z,45.8
2019-01-18T11:32:48.920Z,45.8
2019-01-18T11:33:39.275Z,45.6
2019-01-18T11:34:29.018Z,45.6
2019-01-18T11:35:20.234Z,45.5
2019-01-18T11:36:09.689Z,45.4
2019-01-18T11:37:03.008Z,45.4
2019-01-18T11:37:49.540Z,45.3
2019-01-18T11:38:40.147Z,45.2
2019-01-18T11:39:30.245Z,45.1
2019-01-18T11:40:19.983Z,45.1
2019-01-18T11:41:10.053Z,45.1
2019-01-18T11:41:59.554Z,45
2019-01-18T11:42:49.945Z,44.9
2019-01-18T11:43:40.225Z,44.9
2019-01-18T11:44:30.582Z,44.9
2019-01-18T11:45:20.655Z,44.8
2019-01-18T11:46:09.848Z,44.8
2019-01-18T11:47:00.440Z,44.8
2019-01-18T11:47:50.812Z,44.8
2019-01-18T11:48:40.865Z,44.6
2019-01-18T11:49:30.897Z,44.4
2019-01-18T11:50:20.962Z,44.3
2019-01-18T11:51:10.737Z,44.1
2019-01-18T11:52:01.082Z,43.9
2019-01-18T11:52:50.574Z,43.9
2019-01-18T11:53:42.103Z,43.8
2019-01-18T11:54:30.972Z,43.9
2019-01-18T11:55:21.570Z,43.9
2019-01-18T11:56:11.664Z,44
2019-01-18T11:57:01.454Z,44
2019-01-18T11:57:51.522Z,44.1
2019-01-18T11:58:41.529Z,44.1
2019-01-18T11:59:31.583Z,44.1
2019-01-18T12:00:21.641Z,44.1
2019-01-18T12:01:11.429Z,44.1
2019-01-18T12:02:01.750Z,44
2019-01-18T12:02:51.538Z,43.9
2019-01-18T12:03:42.126Z,43.9
2019-01-18T12:04:31.671Z,44
2019-01-18T12:05:22.029Z,44
2019-01-18T12:07:43.314Z,44
2019-01-18T12:08:33.932Z,44
2019-01-18T12:09:24.251Z,44.1
2019-01-18T12:10:14.034Z,44.1
2019-01-18T12:11:04.391Z,44.3
2019-01-18T12:11:54.413Z,44.3
2019-01-18T12:12:43.636Z,44.4
2019-01-18T12:13:33.991Z,44.6
2019-01-18T12:14:24.661Z,44.6
2019-01-18T12:15:13.820Z,44.7
2019-01-18T12:16:03.886Z,44.8
2019-01-18T12:16:54.536Z,44.8
2019-01-18T12:17:44.551Z,44.9
2019-01-18T12:18:34.614Z,45.1
2019-01-18T12:19:24.376Z,45.1
2019-01-18T12:20:14.716Z,45.2
2019-01-18T12:21:03.681Z,45.3
2019-01-18T12:21:54.270Z,45.4
2019-01-18T12:22:44.918Z,45.4
2019-01-18T12:23:34.650Z,45.4
2019-01-18T12:24:24.451Z,45.4
2019-01-18T12:25:15.057Z,45.3
2019-01-18T12:26:04.875Z,45.3
2019-01-18T12:26:55.163Z,45.2
2019-01-18T12:27:44.705Z,45.1
2019-01-18T12:28:35.002Z,45.1
2019-01-18T12:29:26.929Z,45.1
2019-01-18T12:30:15.184Z,45.1
2019-01-18T12:31:05.733Z,45.1
2019-01-18T12:31:55.091Z,45.1
2019-01-18T12:32:44.812Z,45.1
2019-01-18T12:33:34.861Z,45.1
2019-01-18T12:34:24.918Z,45
2019-01-18T12:35:14.431Z,45
2019-01-18T12:36:04.498Z,44.9
2019-01-18T12:37:02.716Z,44.9
2019-01-18T12:37:45.448Z,45
2019-01-18T12:38:35.225Z,45
2019-01-18T12:39:26.031Z,45
2019-01-18T12:40:15.853Z,45
2019-01-18T12:41:05.046Z,44.9
2019-01-18T12:41:55.923Z,44.9
2019-01-18T12:42:45.706Z,44.9
2019-01-18T12:43:36.038Z,44.8
2019-01-18T12:44:26.672Z,44.7
2019-01-18T12:45:15.332Z,44.6
2019-01-18T12:46:05.662Z,44.5
2019-01-18T12:46:56.005Z,44.4
2019-01-18T12:47:46.323Z,44.3
2019-01-18T12:48:36.103Z,44.3
2019-01-18T12:49:26.733Z,44.2
2019-01-18T12:50:17.043Z,44.1
2019-01-18T12:51:08.330Z,44.1
2019-01-18T12:51:56.607Z,44
2019-01-18T12:52:46.655Z,43.9
2019-01-18T12:53:36.714Z,43.8
2019-01-18T12:54:27.362Z,43.8
2019-01-18T12:55:17.139Z,43.8
2019-01-18T12:56:07.162Z,43.6
2019-01-18T12:56:57.207Z,43.6
2019-01-18T12:57:46.452Z,43.6
2019-01-18T12:58:37.069Z,43.5
2019-01-18T12:59:27.742Z,43.5
2019-01-18T13:00:17.282Z,43.4
2019-01-18T13:01:07.229Z,43.4
2019-01-18T13:01:57.347Z,43.3
2019-01-18T13:02:47.634Z,43.3
2019-01-18T13:03:37.686Z,43.3
2019-01-18T13:04:27.523Z,43.3
2019-01-18T13:05:17.073Z,43.3
2019-01-18T13:06:07.576Z,43.2
2019-01-18T13:06:57.414Z,43.1
2019-01-18T13:07:47.174Z,43.1
2019-01-18T13:08:39.084Z,43.1
2019-01-18T13:09:27.821Z,43
2019-01-18T13:10:17.956Z,42.9
2019-01-18T13:11:07.674Z,42.9
2019-01-18T13:11:58.563Z,42.8
2019-01-18T13:12:48.118Z,42.8
2019-01-18T13:13:37.571Z,42.7
2019-01-18T13:14:28.201Z,42.6
2019-01-18T13:15:18.236Z,42.6
2019-01-18T13:16:08.633Z,42.5
2019-01-18T13:16:58.926Z,42.4
2019-01-18T13:17:48.930Z,42.4
2019-01-18T13:18:38.463Z,42.4
2019-01-18T13:19:28.569Z,42.3
2019-01-18T13:20:18.575Z,42.3
2019-01-18T13:21:08.365Z,42.3
2019-01-18T13:21:58.110Z,42.2
2019-01-18T13:22:48.780Z,42.2
2019-01-18T13:23:38.796Z,42.1
2019-01-18T13:24:28.880Z,42
2019-01-18T13:25:18.665Z,41.9
2019-01-18T13:26:09.322Z,41.8
2019-01-18T13:26:58.502Z,41.8
2019-01-18T13:27:49.644Z,41.7
2019-01-18T13:28:39.147Z,41.6
2019-01-18T13:29:29.227Z,41.6
2019-01-18T13:30:19.842Z,41.5
2019-01-18T13:31:09.295Z,41.4
2019-01-18T13:31:59.653Z,41.4
2019-01-18T13:32:49.717Z,41.3
2019-01-18T13:33:39.487Z,41.3
2019-01-18T13:34:29.577Z,41.2
2019-01-18T13:35:18.927Z,41.2
2019-01-18T13:36:09.657Z,41.1
2019-01-18T13:36:59.467Z,41.1
2019-01-18T13:37:50.332Z,41
2019-01-18T13:38:39.551Z,40.9
2019-01-18T13:39:29.644Z,40.9
2019-01-18T13:40:19.707Z,40.9
2019-01-18T13:41:09.734Z,40.8
2019-01-18T13:42:01.424Z,40.8
2019-01-18T13:42:50.140Z,40.7
2019-01-18T13:43:40.225Z,40.6
2019-01-18T13:44:30.534Z,40.6